sensor_id;sensor_type;location;lat;lon;timestamp;temperature;humidity
21149;DHT22;10732;51.472;6.466;2023-06-04T00:01:09;12.80;32.50
21149;DHT22;10732;51.472;6.466;2023-06-04T00:03:35;12.90;41.40
21149;DHT22;10732;51.472;6.466;2023-06-04T00:06:00;12.80;58.00
21149;DHT22;10732;51.472;6.466;2023-06-04T00:08:26;12.80;93.90
21149;DHT22;10732;51.472;6.466;2023-06-04T00:10:51;12.70;99.40
21149;DHT22;10732;51.472;6.466;2023-06-04T00:13:17;12.60;94.90
21149;DHT22;10732;51.472;6.466;2023-06-04T00:15:43;12.60;99.90
21149;DHT22;10732;51.472;6.466;2023-06-04T00:18:08;12.60;99.90
21149;DHT22;10732;51.472;6.466;2023-06-04T00:20:36;12.60;99.90
21149;DHT22;10732;51.472;6.466;2023-06-04T00:23:02;12.50;99.90
21149;DHT22;10732;51.472;6.466;2023-06-04T00:25:27;12.50;99.90
21149;DHT22;10732;51.472;6.466;2023-06-04T00:27:53;12.50;99.90
21149;DHT22;10732;51.472;6.466;2023-06-04T00:30:18;12.40;99.90
21149;DHT22;10732;51.472;6.466;2023-06-04T00:32:44;12.40;99.90
21149;DHT22;10732;51.472;6.466;2023-06-04T00:35:09;12.30;99.90
21149;DHT22;10732;51.472;6.466;2023-06-04T00:37:35;12.30;99.90
21149;DHT22;10732;51.472;6.466;2023-06-04T00:40:01;12.20;99.90
21149;DHT22;10732;51.472;6.466;2023-06-04T00:42:26;12.10;99.90
21149;DHT22;10732;51.472;6.466;2023-06-04T00:44:52;12.10;99.90
21149;DHT22;10732;51.472;6.466;2023-06-04T00:47:18;12.00;99.90
21149;DHT22;10732;51.472;6.466;2023-06-04T00:49:45;12.10;99.90
21149;DHT22;10732;51.472;6.466;2023-06-04T00:52:13;12.00;99.90
21149;DHT22;10732;51.472;6.466;2023-06-04T00:54:39;11.90;99.90
21149;DHT22;10732;51.472;6.466;2023-06-04T00:57:05;11.90;99.90
21149;DHT22;10732;51.472;6.466;2023-06-04T00:59:33;12.00;99.90
21149;DHT22;10732;51.472;6.466;2023-06-04T01:02:21;11.90;99.90
21149;DHT22;10732;51.472;6.466;2023-06-04T01:04:57;11.80;99.90
21149;DHT22;10732;51.472;6.466;2023-06-04T01:07:25;11.80;99.90
21149;DHT22;10732;51.472;6.466;2023-06-04T01:09:52;11.80;99.90
21149;DHT22;10732;51.472;6.466;2023-06-04T01:12:18;11.70;99.90
21149;DHT22;10732;51.472;6.466;2023-06-04T01:14:43;11.70;99.90
21149;DHT22;10732;51.472;6.466;2023-06-04T01:25:17;11.60;99.90
21149;DHT22;10732;51.472;6.466;2023-06-04T01:27:49;11.60;99.90
21149;DHT22;10732;51.472;6.466;2023-06-04T01:30:28;11.60;99.90
21149;DHT22;10732;51.472;6.466;2023-06-04T01:32:55;11.50;99.90
21149;DHT22;10732;51.472;6.466;2023-06-04T01:35:21;11.50;99.90
21149;DHT22;10732;51.472;6.466;2023-06-04T01:37:47;11.50;99.90
21149;DHT22;10732;51.472;6.466;2023-06-04T01:40:14;11.40;99.90
21149;DHT22;10732;51.472;6.466;2023-06-04T01:42:41;11.40;99.90
21149;DHT22;10732;51.472;6.466;2023-06-04T01:45:07;11.40;99.90
21149;DHT22;10732;51.472;6.466;2023-06-04T01:47:33;11.40;99.90
21149;DHT22;10732;51.472;6.466;2023-06-04T01:49:59;11.40;99.90
21149;DHT22;10732;51.472;6.466;2023-06-04T01:52:25;11.40;99.90
21149;DHT22;10732;51.472;6.466;2023-06-04T01:54:50;11.30;99.90
21149;DHT22;10732;51.472;6.466;2023-06-04T01:57:19;11.30;99.90
21149;DHT22;10732;51.472;6.466;2023-06-04T01:59:45;11.20;99.90
21149;DHT22;10732;51.472;6.466;2023-06-04T02:02:12;11.20;99.90
21149;DHT22;10732;51.472;6.466;2023-06-04T02:04:37;11.20;99.90
21149;DHT22;10732;51.472;6.466;2023-06-04T02:07:07;11.20;99.90
21149;DHT22;10732;51.472;6.466;2023-06-04T02:09:33;11.20;99.90
21149;DHT22;10732;51.472;6.466;2023-06-04T02:12:00;11.20;99.90
21149;DHT22;10732;51.472;6.466;2023-06-04T02:14:26;11.20;99.90
21149;DHT22;10732;51.472;6.466;2023-06-04T02:16:51;11.20;99.90
21149;DHT22;10732;51.472;6.466;2023-06-04T02:19:19;11.20;99.90
21149;DHT22;10732;51.472;6.466;2023-06-04T02:21:45;11.10;99.90
21149;DHT22;10732;51.472;6.466;2023-06-04T02:24:11;11.10;99.90
21149;DHT22;10732;51.472;6.466;2023-06-04T02:26:36;11.10;99.90
21149;DHT22;10732;51.472;6.466;2023-06-04T02:29:02;11.10;99.90
21149;DHT22;10732;51.472;6.466;2023-06-04T02:31:27;11.00;99.90
21149;DHT22;10732;51.472;6.466;2023-06-04T02:33:53;11.00;99.90
21149;DHT22;10732;51.472;6.466;2023-06-04T02:36:18;10.90;99.90
21149;DHT22;10732;51.472;6.466;2023-06-04T02:38:44;10.90;99.90
21149;DHT22;10732;51.472;6.466;2023-06-04T02:41:09;10.80;99.90
21149;DHT22;10732;51.472;6.466;2023-06-04T02:43:36;10.80;99.90
21149;DHT22;10732;51.472;6.466;2023-06-04T02:46:01;10.70;99.90
21149;DHT22;10732;51.472;6.466;2023-06-04T02:48:27;10.70;99.90
21149;DHT22;10732;51.472;6.466;2023-06-04T02:50:52;10.60;99.90
21149;DHT22;10732;51.472;6.466;2023-06-04T02:53:18;10.60;99.90
21149;DHT22;10732;51.472;6.466;2023-06-04T02:55:43;10.60;99.90
21149;DHT22;10732;51.472;6.466;2023-06-04T02:58:09;10.60;99.90
21149;DHT22;10732;51.472;6.466;2023-06-04T03:00:34;10.60;99.90
21149;DHT22;10732;51.472;6.466;2023-06-04T03:03:00;10.60;99.90
21149;DHT22;10732;51.472;6.466;2023-06-04T03:05:27;10.60;99.90
21149;DHT22;10732;51.472;6.466;2023-06-04T03:07:52;10.60;99.90
21149;DHT22;10732;51.472;6.466;2023-06-04T03:10:18;10.50;99.90
21149;DHT22;10732;51.472;6.466;2023-06-04T03:12:45;10.40;99.90
21149;DHT22;10732;51.472;6.466;2023-06-04T03:15:11;10.40;99.90
21149;DHT22;10732;51.472;6.466;2023-06-04T03:17:37;10.40;99.90
21149;DHT22;10732;51.472;6.466;2023-06-04T03:20:03;10.30;99.90
21149;DHT22;10732;51.472;6.466;2023-06-04T03:22:32;10.40;99.90
21149;DHT22;10732;51.472;6.466;2023-06-04T03:24:59;10.30;99.90
21149;DHT22;10732;51.472;6.466;2023-06-04T03:27:24;10.40;99.90
21149;DHT22;10732;51.472;6.466;2023-06-04T03:29:50;10.30;99.90
21149;DHT22;10732;51.472;6.466;2023-06-04T03:32:15;10.30;99.90
21149;DHT22;10732;51.472;6.466;2023-06-04T03:34:42;10.30;99.90
21149;DHT22;10732;51.472;6.466;2023-06-04T03:37:08;10.30;99.90
21149;DHT22;10732;51.472;6.466;2023-06-04T03:39:33;10.30;99.90
21149;DHT22;10732;51.472;6.466;2023-06-04T03:41:59;10.30;99.90
21149;DHT22;10732;51.472;6.466;2023-06-04T03:44:24;10.30;99.90
21149;DHT22;10732;51.472;6.466;2023-06-04T03:46:51;10.30;99.90
21149;DHT22;10732;51.472;6.466;2023-06-04T03:49:16;10.30;99.90
21149;DHT22;10732;51.472;6.466;2023-06-04T03:51:43;10.30;99.90
21149;DHT22;10732;51.472;6.466;2023-06-04T03:54:08;10.30;99.90
21149;DHT22;10732;51.472;6.466;2023-06-04T03:56:34;10.30;99.90
21149;DHT22;10732;51.472;6.466;2023-06-04T03:59:00;10.40;99.90
21149;DHT22;10732;51.472;6.466;2023-06-04T04:01:26;10.40;99.90
21149;DHT22;10732;51.472;6.466;2023-06-04T04:03:52;10.40;99.90
21149;DHT22;10732;51.472;6.466;2023-06-04T04:06:19;10.40;99.90
21149;DHT22;10732;51.472;6.466;2023-06-04T04:08:45;10.40;99.90
21149;DHT22;10732;51.472;6.466;2023-06-04T04:11:14;10.40;99.90
21149;DHT22;10732;51.472;6.466;2023-06-04T04:13:40;10.50;99.90
21149;DHT22;10732;51.472;6.466;2023-06-04T04:16:06;10.50;99.90
21149;DHT22;10732;51.472;6.466;2023-06-04T04:18:35;10.60;99.90
21149;DHT22;10732;51.472;6.466;2023-06-04T04:21:02;10.60;99.90
21149;DHT22;10732;51.472;6.466;2023-06-04T04:23:28;10.60;99.90
21149;DHT22;10732;51.472;6.466;2023-06-04T04:25:55;10.70;99.90
21149;DHT22;10732;51.472;6.466;2023-06-04T04:28:26;10.70;99.90
21149;DHT22;10732;51.472;6.466;2023-06-04T04:30:57;10.80;99.90
21149;DHT22;10732;51.472;6.466;2023-06-04T04:33:25;10.80;99.90
21149;DHT22;10732;51.472;6.466;2023-06-04T04:35:51;10.90;99.90
21149;DHT22;10732;51.472;6.466;2023-06-04T04:38:18;10.90;99.90
21149;DHT22;10732;51.472;6.466;2023-06-04T04:40:44;10.90;99.90
21149;DHT22;10732;51.472;6.466;2023-06-04T04:43:13;11.00;99.90
21149;DHT22;10732;51.472;6.466;2023-06-04T04:45:38;11.20;99.90
21149;DHT22;10732;51.472;6.466;2023-06-04T04:48:04;11.30;99.90
21149;DHT22;10732;51.472;6.466;2023-06-04T04:50:29;11.40;99.90
21149;DHT22;10732;51.472;6.466;2023-06-04T04:52:57;12.20;99.90
21149;DHT22;10732;51.472;6.466;2023-06-04T04:55:23;13.10;99.90
21149;DHT22;10732;51.472;6.466;2023-06-04T04:57:48;14.40;99.90
21149;DHT22;10732;51.472;6.466;2023-06-04T05:00:14;14.60;99.90
21149;DHT22;10732;51.472;6.466;2023-06-04T05:02:40;14.70;99.90
21149;DHT22;10732;51.472;6.466;2023-06-04T05:05:06;14.20;99.90
21149;DHT22;10732;51.472;6.466;2023-06-04T05:07:32;14.60;99.90
21149;DHT22;10732;51.472;6.466;2023-06-04T05:09:57;15.10;99.90
21149;DHT22;10732;51.472;6.466;2023-06-04T05:12:25;15.30;99.90
21149;DHT22;10732;51.472;6.466;2023-06-04T05:14:52;15.70;99.90
21149;DHT22;10732;51.472;6.466;2023-06-04T05:17:17;16.30;99.90
21149;DHT22;10732;51.472;6.466;2023-06-04T05:19:47;16.10;1.00
21149;DHT22;10732;51.472;6.466;2023-06-04T05:22:12;15.90;1.00
21149;DHT22;10732;51.472;6.466;2023-06-04T05:24:41;17.00;99.90
21149;DHT22;10732;51.472;6.466;2023-06-04T05:27:06;17.30;99.90
21149;DHT22;10732;51.472;6.466;2023-06-04T05:29:34;17.00;99.90
21149;DHT22;10732;51.472;6.466;2023-06-04T05:32:00;17.10;1.00
21149;DHT22;10732;51.472;6.466;2023-06-04T05:34:26;17.60;99.90
21149;DHT22;10732;51.472;6.466;2023-06-04T05:36:52;17.70;99.90
21149;DHT22;10732;51.472;6.466;2023-06-04T05:39:18;17.30;1.00
21149;DHT22;10732;51.472;6.466;2023-06-04T05:41:44;18.20;99.90
21149;DHT22;10732;51.472;6.466;2023-06-04T05:44:10;18.80;1.00
21149;DHT22;10732;51.472;6.466;2023-06-04T05:46:36;19.10;48.00
21149;DHT22;10732;51.472;6.466;2023-06-04T05:49:02;18.80;99.90
21149;DHT22;10732;51.472;6.466;2023-06-04T05:51:27;18.70;1.00
21149;DHT22;10732;51.472;6.466;2023-06-04T05:53:54;19.00;1.00
21149;DHT22;10732;51.472;6.466;2023-06-04T05:56:20;19.80;1.00
21149;DHT22;10732;51.472;6.466;2023-06-04T05:58:51;19.60;99.90
21149;DHT22;10732;51.472;6.466;2023-06-04T06:01:17;19.30;1.00
21149;DHT22;10732;51.472;6.466;2023-06-04T06:03:43;19.70;99.90
21149;DHT22;10732;51.472;6.466;2023-06-04T06:06:08;19.30;1.00
21149;DHT22;10732;51.472;6.466;2023-06-04T06:08:35;19.70;99.90
21149;DHT22;10732;51.472;6.466;2023-06-04T06:11:01;20.00;99.90
21149;DHT22;10732;51.472;6.466;2023-06-04T06:13:29;20.70;1.00
21149;DHT22;10732;51.472;6.466;2023-06-04T06:15:55;21.10;99.90
21149;DHT22;10732;51.472;6.466;2023-06-04T06:18:21;21.10;99.90
21149;DHT22;10732;51.472;6.466;2023-06-04T06:20:46;21.70;1.00
21149;DHT22;10732;51.472;6.466;2023-06-04T06:23:12;22.50;99.90
21149;DHT22;10732;51.472;6.466;2023-06-04T06:25:37;23.00;99.90
21149;DHT22;10732;51.472;6.466;2023-06-04T06:28:06;22.80;99.90
21149;DHT22;10732;51.472;6.466;2023-06-04T06:30:31;22.20;99.90
21149;DHT22;10732;51.472;6.466;2023-06-04T06:32:57;22.00;99.90
21149;DHT22;10732;51.472;6.466;2023-06-04T06:35:22;22.10;99.90
21149;DHT22;10732;51.472;6.466;2023-06-04T06:37:48;22.50;99.90
21149;DHT22;10732;51.472;6.466;2023-06-04T06:40:13;22.40;99.90
21149;DHT22;10732;51.472;6.466;2023-06-04T06:42:39;22.60;99.90
21149;DHT22;10732;51.472;6.466;2023-06-04T06:45:05;23.00;99.90
21149;DHT22;10732;51.472;6.466;2023-06-04T06:47:31;23.10;99.90
21149;DHT22;10732;51.472;6.466;2023-06-04T06:49:57;23.20;99.90
21149;DHT22;10732;51.472;6.466;2023-06-04T06:52:22;23.50;99.90
21149;DHT22;10732;51.472;6.466;2023-06-04T06:54:48;24.20;99.90
21149;DHT22;10732;51.472;6.466;2023-06-04T06:57:14;23.80;99.90
21149;DHT22;10732;51.472;6.466;2023-06-04T06:59:40;23.40;99.90
21149;DHT22;10732;51.472;6.466;2023-06-04T07:02:06;22.80;99.90
21149;DHT22;10732;51.472;6.466;2023-06-04T07:04:32;23.40;99.90
21149;DHT22;10732;51.472;6.466;2023-06-04T07:06:58;23.90;99.90
21149;DHT22;10732;51.472;6.466;2023-06-04T07:09:23;24.10;99.90
21149;DHT22;10732;51.472;6.466;2023-06-04T07:11:49;23.50;99.90
21149;DHT22;10732;51.472;6.466;2023-06-04T07:14:14;23.70;99.90
21149;DHT22;10732;51.472;6.466;2023-06-04T07:16:40;23.80;99.90
21149;DHT22;10732;51.472;6.466;2023-06-04T07:19:05;23.40;99.90
21149;DHT22;10732;51.472;6.466;2023-06-04T07:21:31;24.80;99.90
21149;DHT22;10732;51.472;6.466;2023-06-04T07:23:56;25.30;99.90
21149;DHT22;10732;51.472;6.466;2023-06-04T07:26:22;25.10;99.90
21149;DHT22;10732;51.472;6.466;2023-06-04T07:28:48;24.80;99.90
21149;DHT22;10732;51.472;6.466;2023-06-04T07:31:17;24.20;99.90
21149;DHT22;10732;51.472;6.466;2023-06-04T07:33:42;23.60;99.90
21149;DHT22;10732;51.472;6.466;2023-06-04T07:36:18;24.50;99.90
21149;DHT22;10732;51.472;6.466;2023-06-04T07:38:43;24.90;99.90
21149;DHT22;10732;51.472;6.466;2023-06-04T07:41:09;25.00;99.90
21149;DHT22;10732;51.472;6.466;2023-06-04T07:43:36;26.10;99.90
21149;DHT22;10732;51.472;6.466;2023-06-04T07:46:02;26.10;99.90
21149;DHT22;10732;51.472;6.466;2023-06-04T07:48:28;26.40;99.90
21149;DHT22;10732;51.472;6.466;2023-06-04T07:50:59;26.80;99.90
21149;DHT22;10732;51.472;6.466;2023-06-04T07:53:25;25.90;99.90
21149;DHT22;10732;51.472;6.466;2023-06-04T07:55:51;26.70;99.90
21149;DHT22;10732;51.472;6.466;2023-06-04T07:58:16;27.10;99.90
21149;DHT22;10732;51.472;6.466;2023-06-04T08:00:42;26.90;99.90
21149;DHT22;10732;51.472;6.466;2023-06-04T08:03:07;26.20;99.90
21149;DHT22;10732;51.472;6.466;2023-06-04T08:05:34;28.40;99.90
21149;DHT22;10732;51.472;6.466;2023-06-04T08:08:00;27.40;99.90
21149;DHT22;10732;51.472;6.466;2023-06-04T08:10:26;27.40;99.90
21149;DHT22;10732;51.472;6.466;2023-06-04T08:12:52;27.40;99.90
21149;DHT22;10732;51.472;6.466;2023-06-04T08:15:17;27.60;99.90
21149;DHT22;10732;51.472;6.466;2023-06-04T08:17:43;28.10;99.90
21149;DHT22;10732;51.472;6.466;2023-06-04T08:20:08;29.70;99.90
21149;DHT22;10732;51.472;6.466;2023-06-04T08:22:34;28.80;99.90
21149;DHT22;10732;51.472;6.466;2023-06-04T08:25:00;29.20;99.90
21149;DHT22;10732;51.472;6.466;2023-06-04T08:27:25;27.80;99.90
21149;DHT22;10732;51.472;6.466;2023-06-04T08:29:51;27.10;99.90
21149;DHT22;10732;51.472;6.466;2023-06-04T08:32:17;27.10;99.90
21149;DHT22;10732;51.472;6.466;2023-06-04T08:34:43;28.20;99.90
21149;DHT22;10732;51.472;6.466;2023-06-04T08:37:09;28.70;99.90
21149;DHT22;10732;51.472;6.466;2023-06-04T08:39:34;29.30;99.90
21149;DHT22;10732;51.472;6.466;2023-06-04T08:42:03;28.00;99.90
21149;DHT22;10732;51.472;6.466;2023-06-04T08:44:30;28.10;99.90
21149;DHT22;10732;51.472;6.466;2023-06-04T08:47:05;29.40;99.90
21149;DHT22;10732;51.472;6.466;2023-06-04T08:49:35;29.60;99.90
21149;DHT22;10732;51.472;6.466;2023-06-04T08:52:04;27.90;99.90
21149;DHT22;10732;51.472;6.466;2023-06-04T08:54:32;26.90;99.90
21149;DHT22;10732;51.472;6.466;2023-06-04T08:56:57;27.80;99.90
21149;DHT22;10732;51.472;6.466;2023-06-04T08:59:23;27.80;99.90
21149;DHT22;10732;51.472;6.466;2023-06-04T09:01:54;28.40;99.90
21149;DHT22;10732;51.472;6.466;2023-06-04T09:04:20;28.50;99.90
21149;DHT22;10732;51.472;6.466;2023-06-04T09:06:47;28.90;99.90
21149;DHT22;10732;51.472;6.466;2023-06-04T09:09:14;28.70;99.90
21149;DHT22;10732;51.472;6.466;2023-06-04T09:12:01;28.40;99.90
21149;DHT22;10732;51.472;6.466;2023-06-04T09:14:29;27.40;99.90
21149;DHT22;10732;51.472;6.466;2023-06-04T09:16:56;28.70;99.90
21149;DHT22;10732;51.472;6.466;2023-06-04T09:19:24;29.10;99.90
21149;DHT22;10732;51.472;6.466;2023-06-04T09:21:59;28.70;99.90
21149;DHT22;10732;51.472;6.466;2023-06-04T09:24:47;29.40;99.90
21149;DHT22;10732;51.472;6.466;2023-06-04T09:27:17;29.00;99.90
21149;DHT22;10732;51.472;6.466;2023-06-04T09:29:53;28.10;99.90
21149;DHT22;10732;51.472;6.466;2023-06-04T09:32:27;27.10;99.90
21149;DHT22;10732;51.472;6.466;2023-06-04T09:35:07;27.00;99.90
21149;DHT22;10732;51.472;6.466;2023-06-04T09:37:37;28.30;99.90
21149;DHT22;10732;51.472;6.466;2023-06-04T09:40:03;28.90;99.90
21149;DHT22;10732;51.472;6.466;2023-06-04T09:42:44;28.60;99.90
21149;DHT22;10732;51.472;6.466;2023-06-04T09:45:11;28.00;99.90
21149;DHT22;10732;51.472;6.466;2023-06-04T09:47:44;27.70;99.90
21149;DHT22;10732;51.472;6.466;2023-06-04T09:50:13;28.80;99.90
21149;DHT22;10732;51.472;6.466;2023-06-04T09:52:38;29.00;99.90
21149;DHT22;10732;51.472;6.466;2023-06-04T09:55:16;28.50;99.90
21149;DHT22;10732;51.472;6.466;2023-06-04T09:57:46;28.50;99.90
21149;DHT22;10732;51.472;6.466;2023-06-04T10:00:16;29.40;99.90
21149;DHT22;10732;51.472;6.466;2023-06-04T10:02:43;29.30;99.90
21149;DHT22;10732;51.472;6.466;2023-06-04T10:05:11;28.20;99.90
21149;DHT22;10732;51.472;6.466;2023-06-04T10:07:40;29.00;99.90
21149;DHT22;10732;51.472;6.466;2023-06-04T10:10:09;29.60;99.90
21149;DHT22;10732;51.472;6.466;2023-06-04T10:12:37;28.00;99.90
21149;DHT22;10732;51.472;6.466;2023-06-04T10:15:07;28.50;99.90
21149;DHT22;10732;51.472;6.466;2023-06-04T10:17:35;28.10;99.90
21149;DHT22;10732;51.472;6.466;2023-06-04T10:20:02;28.30;99.90
21149;DHT22;10732;51.472;6.466;2023-06-04T10:22:31;28.50;99.90
21149;DHT22;10732;51.472;6.466;2023-06-04T10:24:58;29.20;99.90
21149;DHT22;10732;51.472;6.466;2023-06-04T10:27:24;28.60;99.90
21149;DHT22;10732;51.472;6.466;2023-06-04T10:29:50;28.40;99.90
21149;DHT22;10732;51.472;6.466;2023-06-04T10:32:16;28.10;99.90
21149;DHT22;10732;51.472;6.466;2023-06-04T10:34:42;27.80;99.90
21149;DHT22;10732;51.472;6.466;2023-06-04T10:37:22;28.90;99.90
21149;DHT22;10732;51.472;6.466;2023-06-04T10:39:57;28.70;99.90
21149;DHT22;10732;51.472;6.466;2023-06-04T10:42:24;27.90;99.90
21149;DHT22;10732;51.472;6.466;2023-06-04T10:44:52;28.30;99.90
21149;DHT22;10732;51.472;6.466;2023-06-04T10:47:25;28.50;99.90
21149;DHT22;10732;51.472;6.466;2023-06-04T10:49:54;28.60;99.90
21149;DHT22;10732;51.472;6.466;2023-06-04T10:52:20;29.10;99.90
21149;DHT22;10732;51.472;6.466;2023-06-04T10:54:47;28.40;99.90
21149;DHT22;10732;51.472;6.466;2023-06-04T10:57:17;27.40;99.90
21149;DHT22;10732;51.472;6.466;2023-06-04T11:00:00;27.50;99.90
21149;DHT22;10732;51.472;6.466;2023-06-04T11:02:26;28.40;99.90
21149;DHT22;10732;51.472;6.466;2023-06-04T11:05:02;27.80;99.90
21149;DHT22;10732;51.472;6.466;2023-06-04T11:07:41;27.30;99.90
21149;DHT22;10732;51.472;6.466;2023-06-04T11:10:10;27.60;99.90
21149;DHT22;10732;51.472;6.466;2023-06-04T11:12:49;27.20;99.90
21149;DHT22;10732;51.472;6.466;2023-06-04T11:15:18;27.70;99.90
21149;DHT22;10732;51.472;6.466;2023-06-04T11:17:54;27.90;99.90
21149;DHT22;10732;51.472;6.466;2023-06-04T11:20:21;27.00;99.90
21149;DHT22;10732;51.472;6.466;2023-06-04T11:22:55;26.80;99.90
21149;DHT22;10732;51.472;6.466;2023-06-04T11:25:25;26.90;99.90
21149;DHT22;10732;51.472;6.466;2023-06-04T11:27:55;27.00;99.90
21149;DHT22;10732;51.472;6.466;2023-06-04T11:30:21;26.00;99.90
21149;DHT22;10732;51.472;6.466;2023-06-04T11:32:47;25.70;99.90
21149;DHT22;10732;51.472;6.466;2023-06-04T11:35:13;25.10;99.90
21149;DHT22;10732;51.472;6.466;2023-06-04T11:37:39;25.30;99.90
21149;DHT22;10732;51.472;6.466;2023-06-04T11:40:23;25.40;99.90
21149;DHT22;10732;51.472;6.466;2023-06-04T11:42:50;24.90;99.90
21149;DHT22;10732;51.472;6.466;2023-06-04T11:45:17;25.10;99.90
21149;DHT22;10732;51.472;6.466;2023-06-04T11:47:53;25.40;99.90
21149;DHT22;10732;51.472;6.466;2023-06-04T11:50:19;25.30;99.90
21149;DHT22;10732;51.472;6.466;2023-06-04T11:52:47;25.30;99.90
21149;DHT22;10732;51.472;6.466;2023-06-04T11:55:13;25.30;99.90
21149;DHT22;10732;51.472;6.466;2023-06-04T11:57:39;25.10;99.90
21149;DHT22;10732;51.472;6.466;2023-06-04T12:00:08;25.10;99.90
21149;DHT22;10732;51.472;6.466;2023-06-04T12:02:37;24.50;99.90
21149;DHT22;10732;51.472;6.466;2023-06-04T12:05:16;24.60;99.90
21149;DHT22;10732;51.472;6.466;2023-06-04T12:07:44;25.00;99.90
21149;DHT22;10732;51.472;6.466;2023-06-04T12:10:10;25.10;99.90
21149;DHT22;10732;51.472;6.466;2023-06-04T12:12:39;24.80;99.90
21149;DHT22;10732;51.472;6.466;2023-06-04T12:15:07;24.60;99.90
21149;DHT22;10732;51.472;6.466;2023-06-04T12:17:34;24.70;99.90
21149;DHT22;10732;51.472;6.466;2023-06-04T12:20:00;24.90;99.90
21149;DHT22;10732;51.472;6.466;2023-06-04T12:22:26;24.90;99.90
21149;DHT22;10732;51.472;6.466;2023-06-04T12:24:55;25.00;99.90
21149;DHT22;10732;51.472;6.466;2023-06-04T12:27:23;24.50;99.90
21149;DHT22;10732;51.472;6.466;2023-06-04T12:30:00;24.60;99.90
21149;DHT22;10732;51.472;6.466;2023-06-04T12:32:26;24.60;99.90
21149;DHT22;10732;51.472;6.466;2023-06-04T12:34:52;24.80;99.90
21149;DHT22;10732;51.472;6.466;2023-06-04T12:37:18;24.60;99.90
21149;DHT22;10732;51.472;6.466;2023-06-04T12:39:44;24.20;99.90
21149;DHT22;10732;51.472;6.466;2023-06-04T12:42:09;24.50;99.90
21149;DHT22;10732;51.472;6.466;2023-06-04T12:44:36;24.50;99.90
21149;DHT22;10732;51.472;6.466;2023-06-04T12:47:02;24.90;99.90
21149;DHT22;10732;51.472;6.466;2023-06-04T12:49:28;25.20;99.90
21149;DHT22;10732;51.472;6.466;2023-06-04T12:51:54;24.80;99.90
21149;DHT22;10732;51.472;6.466;2023-06-04T12:54:19;24.80;99.90
21149;DHT22;10732;51.472;6.466;2023-06-04T12:56:45;24.50;99.90
21149;DHT22;10732;51.472;6.466;2023-06-04T12:59:12;24.60;99.90
21149;DHT22;10732;51.472;6.466;2023-06-04T13:01:37;24.70;99.90
21149;DHT22;10732;51.472;6.466;2023-06-04T13:04:03;24.70;99.90
21149;DHT22;10732;51.472;6.466;2023-06-04T13:06:29;24.80;99.90
21149;DHT22;10732;51.472;6.466;2023-06-04T13:08:55;24.80;99.90
21149;DHT22;10732;51.472;6.466;2023-06-04T13:11:20;24.80;99.90
21149;DHT22;10732;51.472;6.466;2023-06-04T13:13:47;24.90;99.90
21149;DHT22;10732;51.472;6.466;2023-06-04T13:16:13;24.90;99.90
21149;DHT22;10732;51.472;6.466;2023-06-04T13:18:39;24.90;99.90
21149;DHT22;10732;51.472;6.466;2023-06-04T13:21:05;24.70;99.90
21149;DHT22;10732;51.472;6.466;2023-06-04T13:23:31;24.70;99.90
21149;DHT22;10732;51.472;6.466;2023-06-04T13:25:56;24.70;99.90
21149;DHT22;10732;51.472;6.466;2023-06-04T13:28:22;25.00;99.90
21149;DHT22;10732;51.472;6.466;2023-06-04T13:30:48;25.00;99.90
21149;DHT22;10732;51.472;6.466;2023-06-04T13:33:13;25.30;99.90
21149;DHT22;10732;51.472;6.466;2023-06-04T13:35:39;25.40;99.90
21149;DHT22;10732;51.472;6.466;2023-06-04T13:38:05;25.40;99.90
21149;DHT22;10732;51.472;6.466;2023-06-04T13:40:36;25.10;99.90
21149;DHT22;10732;51.472;6.466;2023-06-04T13:43:02;24.90;99.90
21149;DHT22;10732;51.472;6.466;2023-06-04T13:45:28;24.80;99.90
21149;DHT22;10732;51.472;6.466;2023-06-04T13:47:53;24.60;99.90
21149;DHT22;10732;51.472;6.466;2023-06-04T13:50:19;24.40;99.90
21149;DHT22;10732;51.472;6.466;2023-06-04T13:52:45;24.60;99.90
21149;DHT22;10732;51.472;6.466;2023-06-04T13:55:12;24.50;99.90
21149;DHT22;10732;51.472;6.466;2023-06-04T13:57:38;24.60;99.90
21149;DHT22;10732;51.472;6.466;2023-06-04T14:00:04;24.50;99.90
21149;DHT22;10732;51.472;6.466;2023-06-04T14:02:31;24.60;99.90
21149;DHT22;10732;51.472;6.466;2023-06-04T14:04:57;24.60;99.90
21149;DHT22;10732;51.472;6.466;2023-06-04T14:07:22;24.60;99.90
21149;DHT22;10732;51.472;6.466;2023-06-04T14:09:48;24.50;99.90
21149;DHT22;10732;51.472;6.466;2023-06-04T14:12:20;24.30;99.90
21149;DHT22;10732;51.472;6.466;2023-06-04T14:14:45;24.30;99.90
21149;DHT22;10732;51.472;6.466;2023-06-04T14:17:12;24.50;99.90
21149;DHT22;10732;51.472;6.466;2023-06-04T14:19:39;24.60;99.90
21149;DHT22;10732;51.472;6.466;2023-06-04T14:22:05;24.60;99.90
21149;DHT22;10732;51.472;6.466;2023-06-04T14:24:31;24.60;99.90
21149;DHT22;10732;51.472;6.466;2023-06-04T14:26:57;24.40;99.90
21149;DHT22;10732;51.472;6.466;2023-06-04T14:29:22;24.50;99.90
21149;DHT22;10732;51.472;6.466;2023-06-04T14:31:48;24.60;99.90
21149;DHT22;10732;51.472;6.466;2023-06-04T14:34:13;24.80;99.90
21149;DHT22;10732;51.472;6.466;2023-06-04T14:36:39;24.70;99.90
21149;DHT22;10732;51.472;6.466;2023-06-04T14:39:05;24.80;99.90
21149;DHT22;10732;51.472;6.466;2023-06-04T14:41:30;24.60;99.90
21149;DHT22;10732;51.472;6.466;2023-06-04T14:43:56;24.60;99.90
21149;DHT22;10732;51.472;6.466;2023-06-04T14:46:22;24.40;99.90
21149;DHT22;10732;51.472;6.466;2023-06-04T14:48:47;24.40;99.90
21149;DHT22;10732;51.472;6.466;2023-06-04T14:51:13;24.40;99.90
21149;DHT22;10732;51.472;6.466;2023-06-04T14:53:38;24.50;99.90
21149;DHT22;10732;51.472;6.466;2023-06-04T14:56:07;24.80;99.90
21149;DHT22;10732;51.472;6.466;2023-06-04T14:58:33;24.60;99.90
21149;DHT22;10732;51.472;6.466;2023-06-04T15:01:00;24.60;99.90
21149;DHT22;10732;51.472;6.466;2023-06-04T15:03:29;24.50;99.90
21149;DHT22;10732;51.472;6.466;2023-06-04T15:05:54;24.50;99.90
21149;DHT22;10732;51.472;6.466;2023-06-04T15:08:20;24.30;99.90
21149;DHT22;10732;51.472;6.466;2023-06-04T15:10:46;24.30;99.90
21149;DHT22;10732;51.472;6.466;2023-06-04T15:13:11;24.40;99.90
21149;DHT22;10732;51.472;6.466;2023-06-04T15:15:37;24.20;99.90
21149;DHT22;10732;51.472;6.466;2023-06-04T15:18:02;24.20;99.90
21149;DHT22;10732;51.472;6.466;2023-06-04T15:20:28;24.30;99.90
21149;DHT22;10732;51.472;6.466;2023-06-04T15:22:54;24.40;99.90
21149;DHT22;10732;51.472;6.466;2023-06-04T15:25:20;24.40;99.90
21149;DHT22;10732;51.472;6.466;2023-06-04T15:27:46;24.60;99.90
21149;DHT22;10732;51.472;6.466;2023-06-04T15:30:11;24.50;99.90
21149;DHT22;10732;51.472;6.466;2023-06-04T15:32:37;24.40;99.90
21149;DHT22;10732;51.472;6.466;2023-06-04T15:35:06;24.40;99.90
21149;DHT22;10732;51.472;6.466;2023-06-04T15:37:31;24.20;99.90
21149;DHT22;10732;51.472;6.466;2023-06-04T15:39:57;24.10;99.90